sensor_id;sensor_type;location;lat;lon;timestamp;P1;durP1;ratioP1;P2;durP2;ratioP2
16660;SDS011;8444;52.012;5.048;2023-04-15T00:00:48;6.77;;;3.70;;
16660;SDS011;8444;52.012;5.048;2023-04-15T00:03:15;8.20;;;4.47;;
16660;SDS011;8444;52.012;5.048;2023-04-15T00:05:40;7.23;;;4.00;;
16660;SDS011;8444;52.012;5.048;2023-04-15T00:08:06;7.50;;;4.27;;
16660;SDS011;8444;52.012;5.048;2023-04-15T00:10:32;5.97;;;4.23;;
16660;SDS011;8444;52.012;5.048;2023-04-15T00:12:57;7.67;;;4.10;;
16660;SDS011;8444;52.012;5.048;2023-04-15T00:15:22;6.80;;;3.93;;
16660;SDS011;8444;52.012;5.048;2023-04-15T00:17:49;11.60;;;4.77;;
16660;SDS011;8444;52.012;5.048;2023-04-15T00:20:14;12.47;;;4.57;;
16660;SDS011;8444;52.012;5.048;2023-04-15T00:22:39;4.27;;;3.80;;
16660;SDS011;8444;52.012;5.048;2023-04-15T00:25:04;5.17;;;3.70;;
16660;SDS011;8444;52.012;5.048;2023-04-15T00:27:30;8.63;;;4.10;;
16660;SDS011;8444;52.012;5.048;2023-04-15T00:29:55;6.63;;;3.70;;
16660;SDS011;8444;52.012;5.048;2023-04-15T00:32:21;6.30;;;4.10;;
16660;SDS011;8444;52.012;5.048;2023-04-15T00:34:47;8.73;;;4.57;;
16660;SDS011;8444;52.012;5.048;2023-04-15T00:37:13;5.43;;;4.23;;
16660;SDS011;8444;52.012;5.048;2023-04-15T00:39:38;7.60;;;4.60;;
16660;SDS011;8444;52.012;5.048;2023-04-15T00:42:04;9.80;;;4.37;;
16660;SDS011;8444;52.012;5.048;2023-04-15T00:44:29;8.97;;;5.30;;
16660;SDS011;8444;52.012;5.048;2023-04-15T00:46:54;5.80;;;4.10;;
16660;SDS011;8444;52.012;5.048;2023-04-15T00:49:20;6.57;;;3.93;;
16660;SDS011;8444;52.012;5.048;2023-04-15T00:51:46;5.73;;;4.10;;
16660;SDS011;8444;52.012;5.048;2023-04-15T00:54:11;7.23;;;4.37;;
16660;SDS011;8444;52.012;5.048;2023-04-15T00:56:37;8.63;;;4.43;;
16660;SDS011;8444;52.012;5.048;2023-04-15T00:59:03;8.10;;;4.27;;
16660;SDS011;8444;52.012;5.048;2023-04-15T01:01:28;7.90;;;4.30;;
16660;SDS011;8444;52.012;5.048;2023-04-15T01:03:55;6.83;;;4.60;;
16660;SDS011;8444;52.012;5.048;2023-04-15T01:06:21;5.13;;;4.07;;
16660;SDS011;8444;52.012;5.048;2023-04-15T01:08:47;5.97;;;4.90;;
16660;SDS011;8444;52.012;5.048;2023-04-15T01:11:12;6.03;;;4.07;;
16660;SDS011;8444;52.012;5.048;2023-04-15T01:13:37;5.63;;;4.53;;
16660;SDS011;8444;52.012;5.048;2023-04-15T01:16:03;10.63;;;5.20;;
16660;SDS011;8444;52.012;5.048;2023-04-15T01:18:28;12.10;;;5.07;;
16660;SDS011;8444;52.012;5.048;2023-04-15T01:20:54;8.60;;;4.50;;
16660;SDS011;8444;52.012;5.048;2023-04-15T01:23:20;7.37;;;4.40;;
16660;SDS011;8444;52.012;5.048;2023-04-15T01:25:46;8.47;;;5.03;;
16660;SDS011;8444;52.012;5.048;2023-04-15T01:28:11;8.37;;;5.50;;
16660;SDS011;8444;52.012;5.048;2023-04-15T01:30:36;5.50;;;4.83;;
16660;SDS011;8444;52.012;5.048;2023-04-15T01:33:02;7.30;;;5.03;;
16660;SDS011;8444;52.012;5.048;2023-04-15T01:35:27;7.70;;;5.10;;
16660;SDS011;8444;52.012;5.048;2023-04-15T01:37:53;6.27;;;5.10;;
16660;SDS011;8444;52.012;5.048;2023-04-15T01:40:18;9.33;;;6.00;;
16660;SDS011;8444;52.012;5.048;2023-04-15T01:42:44;12.53;;;5.57;;
16660;SDS011;8444;52.012;5.048;2023-04-15T01:45:09;7.10;;;5.30;;
16660;SDS011;8444;52.012;5.048;2023-04-15T01:47:35;8.83;;;5.30;;
16660;SDS011;8444;52.012;5.048;2023-04-15T01:50:00;8.67;;;5.87;;
16660;SDS011;8444;52.012;5.048;2023-04-15T01:52:25;8.13;;;5.77;;
16660;SDS011;8444;52.012;5.048;2023-04-15T01:54:50;7.13;;;5.67;;
16660;SDS011;8444;52.012;5.048;2023-04-15T01:57:16;9.43;;;6.07;;
16660;SDS011;8444;52.012;5.048;2023-04-15T01:59:41;9.43;;;5.63;;
16660;SDS011;8444;52.012;5.048;2023-04-15T02:02:06;8.63;;;5.57;;
16660;SDS011;8444;52.012;5.048;2023-04-15T02:04:31;7.77;;;5.27;;
16660;SDS011;8444;52.012;5.048;2023-04-15T02:06:58;7.30;;;5.20;;
16660;SDS011;8444;52.012;5.048;2023-04-15T02:09:23;6.57;;;4.90;;
16660;SDS011;8444;52.012;5.048;2023-04-15T02:11:49;5.97;;;4.73;;
16660;SDS011;8444;52.012;5.048;2023-04-15T02:14:14;7.23;;;6.00;;
16660;SDS011;8444;52.012;5.048;2023-04-15T02:16:40;9.30;;;5.77;;
16660;SDS011;8444;52.012;5.048;2023-04-15T02:19:05;7.47;;;6.13;;
16660;SDS011;8444;52.012;5.048;2023-04-15T02:21:30;9.97;;;5.43;;
16660;SDS011;8444;52.012;5.048;2023-04-15T02:23:55;10.07;;;5.90;;
16660;SDS011;8444;52.012;5.048;2023-04-15T02:26:21;11.23;;;5.83;;
16660;SDS011;8444;52.012;5.048;2023-04-15T02:28:46;9.20;;;5.97;;
16660;SDS011;8444;52.012;5.048;2023-04-15T02:31:12;7.10;;;5.33;;
16660;SDS011;8444;52.012;5.048;2023-04-15T02:33:37;6.47;;;5.03;;
16660;SDS011;8444;52.012;5.048;2023-04-15T02:36:02;7.53;;;4.93;;
16660;SDS011;8444;52.012;5.048;2023-04-15T02:38:28;8.27;;;5.13;;
16660;SDS011;8444;52.012;5.048;2023-04-15T02:40:53;8.17;;;5.60;;
16660;SDS011;8444;52.012;5.048;2023-04-15T02:43:18;12.93;;;5.87;;
16660;SDS011;8444;52.012;5.048;2023-04-15T02:45:44;8.20;;;5.40;;
16660;SDS011;8444;52.012;5.048;2023-04-15T02:48:10;7.97;;;5.27;;
16660;SDS011;8444;52.012;5.048;2023-04-15T02:50:35;6.63;;;5.20;;
16660;SDS011;8444;52.012;5.048;2023-04-15T02:53:03;8.67;;;5.67;;
16660;SDS011;8444;52.012;5.048;2023-04-15T02:55:29;10.33;;;5.80;;
16660;SDS011;8444;52.012;5.048;2023-04-15T02:57:54;7.40;;;5.50;;
16660;SDS011;8444;52.012;5.048;2023-04-15T03:00:21;7.53;;;5.37;;
16660;SDS011;8444;52.012;5.048;2023-04-15T03:02:46;8.30;;;5.77;;
16660;SDS011;8444;52.012;5.048;2023-04-15T03:05:12;10.60;;;5.60;;
16660;SDS011;8444;52.012;5.048;2023-04-15T03:07:37;7.73;;;5.97;;
16660;SDS011;8444;52.012;5.048;2023-04-15T03:10:06;7.20;;;5.43;;
16660;SDS011;8444;52.012;5.048;2023-04-15T03:12:31;8.37;;;4.90;;
16660;SDS011;8444;52.012;5.048;2023-04-15T03:14:56;6.57;;;5.47;;
16660;SDS011;8444;52.012;5.048;2023-04-15T03:17:21;8.03;;;5.77;;
16660;SDS011;8444;52.012;5.048;2023-04-15T03:19:46;9.57;;;5.80;;
16660;SDS011;8444;52.012;5.048;2023-04-15T03:22:12;8.87;;;5.43;;
16660;SDS011;8444;52.012;5.048;2023-04-15T03:24:37;8.57;;;6.17;;
16660;SDS011;8444;52.012;5.048;2023-04-15T03:27:02;7.00;;;5.60;;
16660;SDS011;8444;52.012;5.048;2023-04-15T03:29:27;9.77;;;5.47;;
16660;SDS011;8444;52.012;5.048;2023-04-15T03:31:53;10.77;;;5.73;;
16660;SDS011;8444;52.012;5.048;2023-04-15T03:34:18;9.23;;;6.33;;
16660;SDS011;8444;52.012;5.048;2023-04-15T03:36:43;7.13;;;4.93;;
16660;SDS011;8444;52.012;5.048;2023-04-15T03:39:08;7.73;;;5.97;;
16660;SDS011;8444;52.012;5.048;2023-04-15T03:41:34;11.53;;;6.87;;
16660;SDS011;8444;52.012;5.048;2023-04-15T03:43:59;8.60;;;5.70;;
16660;SDS011;8444;52.012;5.048;2023-04-15T03:46:25;7.73;;;5.93;;
16660;SDS011;8444;52.012;5.048;2023-04-15T03:48:50;7.10;;;5.90;;
16660;SDS011;8444;52.012;5.048;2023-04-15T03:51:15;9.33;;;5.67;;
16660;SDS011;8444;52.012;5.048;2023-04-15T03:53:41;9.30;;;5.80;;
16660;SDS011;8444;52.012;5.048;2023-04-15T03:56:06;8.70;;;5.73;;
16660;SDS011;8444;52.012;5.048;2023-04-15T03:58:31;6.43;;;5.47;;
16660;SDS011;8444;52.012;5.048;2023-04-15T04:00:56;12.20;;;6.17;;
16660;SDS011;8444;52.012;5.048;2023-04-15T04:03:21;8.50;;;5.50;;
16660;SDS011;8444;52.012;5.048;2023-04-15T04:05:47;7.50;;;5.60;;
16660;SDS011;8444;52.012;5.048;2023-04-15T04:08:12;7.50;;;4.90;;
16660;SDS011;8444;52.012;5.048;2023-04-15T04:10:38;8.53;;;5.63;;
16660;SDS011;8444;52.012;5.048;2023-04-15T04:13:03;10.70;;;6.73;;
16660;SDS011;8444;52.012;5.048;2023-04-15T04:15:28;8.83;;;6.30;;
16660;SDS011;8444;52.012;5.048;2023-04-15T04:17:53;11.13;;;6.07;;
16660;SDS011;8444;52.012;5.048;2023-04-15T04:20:18;9.37;;;5.73;;
16660;SDS011;8444;52.012;5.048;2023-04-15T04:22:44;11.40;;;6.07;;
16660;SDS011;8444;52.012;5.048;2023-04-15T04:25:09;8.13;;;6.30;;
16660;SDS011;8444;52.012;5.048;2023-04-15T04:27:35;9.37;;;6.57;;
16660;SDS011;8444;52.012;5.048;2023-04-15T04:30:00;8.67;;;6.17;;
16660;SDS011;8444;52.012;5.048;2023-04-15T04:32:26;7.80;;;5.83;;
16660;SDS011;8444;52.012;5.048;2023-04-15T04:34:51;8.63;;;5.47;;
16660;SDS011;8444;52.012;5.048;2023-04-15T04:37:16;8.20;;;5.80;;
16660;SDS011;8444;52.012;5.048;2023-04-15T04:39:41;10.40;;;5.70;;
16660;SDS011;8444;52.012;5.048;2023-04-15T04:42:06;9.77;;;6.43;;
16660;SDS011;8444;52.012;5.048;2023-04-15T04:44:32;9.53;;;6.07;;
16660;SDS011;8444;52.012;5.048;2023-04-15T04:46:57;11.83;;;5.90;;
16660;SDS011;8444;52.012;5.048;2023-04-15T04:49:22;9.37;;;6.20;;
16660;SDS011;8444;52.012;5.048;2023-04-15T04:51:47;9.30;;;6.80;;
16660;SDS011;8444;52.012;5.048;2023-04-15T04:54:12;8.43;;;6.23;;
16660;SDS011;8444;52.012;5.048;2023-04-15T04:56:38;13.10;;;6.37;;
16660;SDS011;8444;52.012;5.048;2023-04-15T04:59:03;12.23;;;6.43;;
16660;SDS011;8444;52.012;5.048;2023-04-15T05:01:29;9.83;;;6.57;;
16660;SDS011;8444;52.012;5.048;2023-04-15T05:03:54;10.13;;;6.60;;
16660;SDS011;8444;52.012;5.048;2023-04-15T05:06:19;11.90;;;6.70;;
16660;SDS011;8444;52.012;5.048;2023-04-15T05:08:45;13.13;;;7.27;;
16660;SDS011;8444;52.012;5.048;2023-04-15T05:11:11;10.90;;;7.17;;
16660;SDS011;8444;52.012;5.048;2023-04-15T05:13:36;8.30;;;5.97;;
16660;SDS011;8444;52.012;5.048;2023-04-15T05:16:03;13.63;;;7.17;;
16660;SDS011;8444;52.012;5.048;2023-04-15T05:18:28;9.20;;;6.87;;
16660;SDS011;8444;52.012;5.048;2023-04-15T05:20:53;8.63;;;6.10;;
16660;SDS011;8444;52.012;5.048;2023-04-15T05:23:19;8.93;;;6.37;;
16660;SDS011;8444;52.012;5.048;2023-04-15T05:25:44;9.43;;;6.90;;
16660;SDS011;8444;52.012;5.048;2023-04-15T05:28:09;8.87;;;6.47;;
16660;SDS011;8444;52.012;5.048;2023-04-15T05:30:35;8.50;;;6.37;;
16660;SDS011;8444;52.012;5.048;2023-04-15T05:33:00;9.03;;;6.80;;
16660;SDS011;8444;52.012;5.048;2023-04-15T05:35:25;10.50;;;7.00;;
16660;SDS011;8444;52.012;5.048;2023-04-15T05:37:51;8.77;;;6.53;;
16660;SDS011;8444;52.012;5.048;2023-04-15T05:40:16;9.50;;;7.00;;
16660;SDS011;8444;52.012;5.048;2023-04-15T05:42:41;11.30;;;7.13;;
16660;SDS011;8444;52.012;5.048;2023-04-15T05:45:06;9.50;;;6.87;;
16660;SDS011;8444;52.012;5.048;2023-04-15T05:47:34;11.63;;;6.93;;
16660;SDS011;8444;52.012;5.048;2023-04-15T05:49:59;17.70;;;7.50;;
16660;SDS011;8444;52.012;5.048;2023-04-15T05:52:24;13.03;;;6.57;;
16660;SDS011;8444;52.012;5.048;2023-04-15T05:54:50;9.70;;;6.87;;
16660;SDS011;8444;52.012;5.048;2023-04-15T05:57:15;11.77;;;7.20;;
16660;SDS011;8444;52.012;5.048;2023-04-15T05:59:40;10.47;;;6.80;;
16660;SDS011;8444;52.012;5.048;2023-04-15T06:02:06;8.47;;;5.93;;
16660;SDS011;8444;52.012;5.048;2023-04-15T06:04:32;9.40;;;6.80;;
16660;SDS011;8444;52.012;5.048;2023-04-15T06:06:57;10.80;;;7.00;;
16660;SDS011;8444;52.012;5.048;2023-04-15T06:09:22;8.97;;;6.43;;
16660;SDS011;8444;52.012;5.048;2023-04-15T06:11:47;11.23;;;7.00;;
16660;SDS011;8444;52.012;5.048;2023-04-15T06:14:13;8.93;;;6.63;;
16660;SDS011;8444;52.012;5.048;2023-04-15T06:16:38;8.07;;;5.87;;
16660;SDS011;8444;52.012;5.048;2023-04-15T06:19:03;9.93;;;6.83;;
16660;SDS011;8444;52.012;5.048;2023-04-15T06:21:28;7.57;;;5.60;;
16660;SDS011;8444;52.012;5.048;2023-04-15T06:23:54;8.20;;;6.07;;
16660;SDS011;8444;52.012;5.048;2023-04-15T06:26:20;9.90;;;6.53;;
16660;SDS011;8444;52.012;5.048;2023-04-15T06:28:45;10.80;;;5.97;;
16660;SDS011;8444;52.012;5.048;2023-04-15T06:31:11;10.87;;;6.37;;
16660;SDS011;8444;52.012;5.048;2023-04-15T06:33:36;8.83;;;6.33;;
16660;SDS011;8444;52.012;5.048;2023-04-15T06:36:01;9.70;;;6.13;;
16660;SDS011;8444;52.012;5.048;2023-04-15T06:38:26;9.10;;;6.20;;
16660;SDS011;8444;52.012;5.048;2023-04-15T06:40:52;8.57;;;6.27;;
16660;SDS011;8444;52.012;5.048;2023-04-15T06:43:17;11.40;;;6.73;;
16660;SDS011;8444;52.012;5.048;2023-04-15T06:45:42;8.90;;;6.10;;
16660;SDS011;8444;52.012;5.048;2023-04-15T06:48:07;9.13;;;5.60;;
16660;SDS011;8444;52.012;5.048;2023-04-15T06:50:33;8.97;;;6.83;;
16660;SDS011;8444;52.012;5.048;2023-04-15T06:52:59;10.60;;;6.40;;
16660;SDS011;8444;52.012;5.048;2023-04-15T06:55:24;10.23;;;5.90;;
16660;SDS011;8444;52.012;5.048;2023-04-15T06:57:50;8.43;;;6.20;;
16660;SDS011;8444;52.012;5.048;2023-04-15T07:00:15;7.43;;;5.70;;
16660;SDS011;8444;52.012;5.048;2023-04-15T07:02:41;7.87;;;5.77;;
16660;SDS011;8444;52.012;5.048;2023-04-15T07:05:06;7.60;;;6.07;;
16660;SDS011;8444;52.012;5.048;2023-04-15T07:07:32;14.23;;;6.60;;
16660;SDS011;8444;52.012;5.048;2023-04-15T07:09:57;8.30;;;5.07;;
16660;SDS011;8444;52.012;5.048;2023-04-15T07:12:22;10.50;;;5.50;;
16660;SDS011;8444;52.012;5.048;2023-04-15T07:14:48;9.50;;;6.00;;
16660;SDS011;8444;52.012;5.048;2023-04-15T07:17:13;10.33;;;6.27;;
16660;SDS011;8444;52.012;5.048;2023-04-15T07:19:38;7.70;;;5.97;;
16660;SDS011;8444;52.012;5.048;2023-04-15T07:22:03;7.50;;;5.57;;
16660;SDS011;8444;52.012;5.048;2023-04-15T07:24:29;7.80;;;5.77;;
16660;SDS011;8444;52.012;5.048;2023-04-15T07:26:55;11.00;;;6.60;;
16660;SDS011;8444;52.012;5.048;2023-04-15T07:29:21;9.43;;;6.13;;
16660;SDS011;8444;52.012;5.048;2023-04-15T07:31:47;9.27;;;6.10;;
16660;SDS011;8444;52.012;5.048;2023-04-15T07:34:12;8.18;;;5.43;;
16660;SDS011;8444;52.012;5.048;2023-04-15T07:36:37;9.20;;;6.20;;
16660;SDS011;8444;52.012;5.048;2023-04-15T07:39:02;7.27;;;5.33;;
16660;SDS011;8444;52.012;5.048;2023-04-15T07:41:28;7.75;;;5.57;;
16660;SDS011;8444;52.012;5.048;2023-04-15T07:43:54;9.85;;;5.80;;
16660;SDS011;8444;52.012;5.048;2023-04-15T07:46:19;7.03;;;5.18;;
16660;SDS011;8444;52.012;5.048;2023-04-15T07:48:45;6.95;;;4.95;;
16660;SDS011;8444;52.012;5.048;2023-04-15T07:51:11;5.50;;;4.07;;
16660;SDS011;8444;52.012;5.048;2023-04-15T07:53:36;7.32;;;4.28;;
16660;SDS011;8444;52.012;5.048;2023-04-15T07:56:02;5.68;;;4.43;;
16660;SDS011;8444;52.012;5.048;2023-04-15T07:58:27;6.07;;;4.22;;
16660;SDS011;8444;52.012;5.048;2023-04-15T08:00:52;6.68;;;3.97;;
16660;SDS011;8444;52.012;5.048;2023-04-15T08:03:19;5.88;;;4.45;;
16660;SDS011;8444;52.012;5.048;2023-04-15T08:05:45;6.90;;;3.80;;
16660;SDS011;8444;52.012;5.048;2023-04-15T08:08:11;6.57;;;4.55;;
16660;SDS011;8444;52.012;5.048;2023-04-15T08:10:36;5.53;;;3.65;;
16660;SDS011;8444;52.012;5.048;2023-04-15T08:13:02;5.30;;;3.88;;
16660;SDS011;8444;52.012;5.048;2023-04-15T08:15:27;5.60;;;3.38;;
16660;SDS011;8444;52.012;5.048;2023-04-15T08:17:52;4.70;;;3.72;;
16660;SDS011;8444;52.012;5.048;2023-04-15T08:20:17;7.50;;;3.85;;
16660;SDS011;8444;52.012;5.048;2023-04-15T08:22:43;4.43;;;3.47;;
16660;SDS011;8444;52.012;5.048;2023-04-15T08:25:09;6.55;;;3.75;;
16660;SDS011;8444;52.012;5.048;2023-04-15T08:27:34;7.95;;;4.03;;
16660;SDS011;8444;52.012;5.048;2023-04-15T08:30:00;4.75;;;3.90;;
16660;SDS011;8444;52.012;5.048;2023-04-15T08:32:25;6.00;;;3.78;;
16660;SDS011;8444;52.012;5.048;2023-04-15T08:34:51;6.30;;;3.60;;
16660;SDS011;8444;52.012;5.048;2023-04-15T08:37:17;5.40;;;3.03;;
16660;SDS011;8444;52.012;5.048;2023-04-15T08:39:42;8.38;;;3.72;;
16660;SDS011;8444;52.012;5.048;2023-04-15T08:42:15;4.57;;;3.15;;
16660;SDS011;8444;52.012;5.048;2023-04-15T08:44:40;5.30;;;3.22;;
16660;SDS011;8444;52.012;5.048;2023-04-15T08:47:06;5.60;;;3.85;;
16660;SDS011;8444;52.012;5.048;2023-04-15T08:49:32;6.90;;;3.92;;
16660;SDS011;8444;52.012;5.048;2023-04-15T08:51:58;6.15;;;3.70;;
16660;SDS011;8444;52.012;5.048;2023-04-15T08:54:24;5.28;;;3.75;;
16660;SDS011;8444;52.012;5.048;2023-04-15T08:56:49;6.40;;;3.47;;
16660;SDS011;8444;52.012;5.048;2023-04-15T08:59:16;6.90;;;3.08;;
16660;SDS011;8444;52.012;5.048;2023-04-15T09:01:42;4.32;;;3.10;;
16660;SDS011;8444;52.012;5.048;2023-04-15T09:04:07;5.07;;;3.10;;
16660;SDS011;8444;52.012;5.048;2023-04-15T09:06:32;3.90;;;3.03;;
16660;SDS011;8444;52.012;5.048;2023-04-15T09:08:58;4.47;;;3.15;;
16660;SDS011;8444;52.012;5.048;2023-04-15T09:11:23;5.85;;;3.65;;
16660;SDS011;8444;52.012;5.048;2023-04-15T09:13:49;5.22;;;3.92;;
16660;SDS011;8444;52.012;5.048;2023-04-15T09:16:14;5.60;;;2.90;;
16660;SDS011;8444;52.012;5.048;2023-04-15T09:18:39;4.53;;;2.60;;
16660;SDS011;8444;52.012;5.048;2023-04-15T09:21:05;4.18;;;2.47;;
16660;SDS011;8444;52.012;5.048;2023-04-15T09:23:32;10.10;;;3.10;;
16660;SDS011;8444;52.012;5.048;2023-04-15T09:25:58;4.38;;;3.08;;
16660;SDS011;8444;52.012;5.048;2023-04-15T09:28:23;5.07;;;2.92;;
16660;SDS011;8444;52.012;5.048;2023-04-15T09:30:50;4.03;;;2.10;;
16660;SDS011;8444;52.012;5.048;2023-04-15T09:33:16;3.58;;;2.30;;
16660;SDS011;8444;52.012;5.048;2023-04-15T09:35:41;2.80;;;2.22;;
16660;SDS011;8444;52.012;5.048;2023-04-15T09:38:10;4.20;;;2.60;;
16660;SDS011;8444;52.012;5.048;2023-04-15T09:40:37;2.40;;;1.73;;
16660;SDS011;8444;52.012;5.048;2023-04-15T09:43:03;2.58;;;1.73;;
16660;SDS011;8444;52.012;5.048;2023-04-15T09:45:29;3.03;;;2.42;;
16660;SDS011;8444;52.012;5.048;2023-04-15T09:47:56;2.97;;;1.65;;
16660;SDS011;8444;52.012;5.048;2023-04-15T09:50:21;3.97;;;1.63;;
16660;SDS011;8444;52.012;5.048;2023-04-15T09:52:46;2.58;;;1.45;;
16660;SDS011;8444;52.012;5.048;2023-04-15T09:55:12;3.78;;;1.70;;
16660;SDS011;8444;52.012;5.048;2023-04-15T09:57:38;2.78;;;1.80;;
16660;SDS011;8444;52.012;5.048;2023-04-15T10:00:05;3.35;;;1.98;;
16660;SDS011;8444;52.012;5.048;2023-04-15T10:02:32;2.55;;;2.28;;
16660;SDS011;8444;52.012;5.048;2023-04-15T10:04:57;4.57;;;2.45;;
16660;SDS011;8444;52.012;5.048;2023-04-15T10:07:23;4.30;;;1.98;;
16660;SDS011;8444;52.012;5.048;2023-04-15T10:09:49;4.82;;;2.20;;
16660;SDS011;8444;52.012;5.048;2023-04-15T10:12:15;4.03;;;2.53;;
16660;SDS011;8444;52.012;5.048;2023-04-15T10:14:41;4.22;;;2.50;;
16660;SDS011;8444;52.012;5.048;2023-04-15T10:17:07;6.90;;;2.53;;
16660;SDS011;8444;52.012;5.048;2023-04-15T10:19:35;4.93;;;2.33;;
16660;SDS011;8444;52.012;5.048;2023-04-15T10:22:01;3.45;;;2.45;;
16660;SDS011;8444;52.012;5.048;2023-04-15T10:24:26;5.50;;;2.20;;
16660;SDS011;8444;52.012;5.048;2023-04-15T10:26:52;5.60;;;2.00;;
16660;SDS011;8444;52.012;5.048;2023-04-15T10:29:17;3.35;;;1.80;;
16660;SDS011;8444;52.012;5.048;2023-04-15T10:31:43;3.15;;;1.60;;
16660;SDS011;8444;52.012;5.048;2023-04-15T10:34:09;3.17;;;1.33;;
16660;SDS011;8444;52.012;5.048;2023-04-15T10:36:36;1.60;;;1.23;;
16660;SDS011;8444;52.012;5.048;2023-04-15T10:39:01;2.60;;;1.50;;
16660;SDS011;8444;52.012;5.048;2023-04-15T10:41:27;3.25;;;1.20;;
16660;SDS011;8444;52.012;5.048;2023-04-15T10:44:00;1.73;;;1.42;;
16660;SDS011;8444;52.012;5.048;2023-04-15T10:46:42;1.77;;;1.63;;
16660;SDS011;8444;52.012;5.048;2023-04-15T10:51:35;2.08;;;1.70;;
16660;SDS011;8444;52.012;5.048;2023-04-15T10:54:01;3.80;;;2.17;;
16660;SDS011;8444;52.012;5.048;2023-04-15T10:56:29;3.03;;;2.15;;
16660;SDS011;8444;52.012;5.048;2023-04-15T10:58:57;2.20;;;2.00;;
16660;SDS011;8444;52.012;5.048;2023-04-15T11:01:22;3.30;;;1.75;;
16660;SDS011;8444;52.012;5.048;2023-04-15T11:04:07;3.70;;;1.80;;
16660;SDS011;8444;52.012;5.048;2023-04-15T11:06:44;2.40;;;1.77;;
16660;SDS011;8444;52.012;5.048;2023-04-15T11:09:19;2.83;;;1.80;;
16660;SDS011;8444;52.012;5.048;2023-04-15T11:12:07;4.63;;;2.13;;
16660;SDS011;8444;52.012;5.048;2023-04-15T11:14:33;4.03;;;1.70;;
16660;SDS011;8444;52.012;5.048;2023-04-15T11:16:59;3.70;;;2.42;;
16660;SDS011;8444;52.012;5.048;2023-04-15T11:19:25;5.18;;;2.10;;
16660;SDS011;8444;52.012;5.048;2023-04-15T11:21:51;6.30;;;2.13;;
16660;SDS011;8444;52.012;5.048;2023-04-15T11:24:23;2.80;;;2.40;;
16660;SDS011;8444;52.012;5.048;2023-04-15T11:26:55;2.92;;;2.42;;
16660;SDS011;8444;52.012;5.048;2023-04-15T11:29:21;2.92;;;2.53;;
16660;SDS011;8444;52.012;5.048;2023-04-15T11:31:47;2.60;;;2.08;;
16660;SDS011;8444;52.012;5.048;2023-04-15T11:34:13;6.57;;;2.80;;
16660;SDS011;8444;52.012;5.048;2023-04-15T11:36:46;3.05;;;2.47;;
16660;SDS011;8444;52.012;5.048;2023-04-15T11:39:12;4.03;;;2.40;;
16660;SDS011;8444;52.012;5.048;2023-04-15T11:41:37;3.58;;;2.80;;
16660;SDS011;8444;52.012;5.048;2023-04-15T11:44:14;3.08;;;2.30;;
16660;SDS011;8444;52.012;5.048;2023-04-15T11:46:40;4.35;;;2.38;;
16660;SDS011;8444;52.012;5.048;2023-04-15T11:49:05;3.63;;;2.30;;
16660;SDS011;8444;52.012;5.048;2023-04-15T11:51:33;6.72;;;2.72;;
16660;SDS011;8444;52.012;5.048;2023-04-15T11:53:59;3.30;;;1.92;;
16660;SDS011;8444;52.012;5.048;2023-04-15T11:56:24;6.78;;;2.63;;
16660;SDS011;8444;52.012;5.048;2023-04-15T11:58:54;4.57;;;2.30;;
16660;SDS011;8444;52.012;5.048;2023-04-15T12:01:23;4.15;;;2.17;;
16660;SDS011;8444;52.012;5.048;2023-04-15T12:03:54;3.05;;;1.90;;
16660;SDS011;8444;52.012;5.048;2023-04-15T12:06:24;2.08;;;1.65;;
16660;SDS011;8444;52.012;5.048;2023-04-15T12:13:56;2.33;;;1.27;;
16660;SDS011;8444;52.012;5.048;2023-04-15T12:16:22;1.65;;;1.33;;
16660;SDS011;8444;52.012;5.048;2023-04-15T12:18:51;3.47;;;1.52;;
16660;SDS011;8444;52.012;5.048;2023-04-15T12:21:19;2.53;;;1.80;;
16660;SDS011;8444;52.012;5.048;2023-04-15T12:23:48;1.98;;;1.55;;
16660;SDS011;8444;52.012;5.048;2023-04-15T12:26:14;1.23;;;1.13;;
16660;SDS011;8444;52.012;5.048;2023-04-15T12:28:40;2.75;;;1.75;;
16660;SDS011;8444;52.012;5.048;2023-04-15T12:31:09;3.05;;;1.55;;
16660;SDS011;8444;52.012;5.048;2023-04-15T12:33:35;3.20;;;1.83;;
16660;SDS011;8444;52.012;5.048;2023-04-15T12:36:00;1.50;;;1.40;;
16660;SDS011;8444;52.012;5.048;2023-04-15T12:38:25;1.98;;;1.55;;
16660;SDS011;8444;52.012;5.048;2023-04-15T12:40:50;4.03;;;2.00;;
16660;SDS011;8444;52.012;5.048;2023-04-15T12:43:15;3.35;;;1.52;;
16660;SDS011;8444;52.012;5.048;2023-04-15T12:45:41;1.90;;;1.40;;
16660;SDS011;8444;52.012;5.048;2023-04-15T12:48:06;3.13;;;2.15;;
16660;SDS011;8444;52.012;5.048;2023-04-15T12:50:33;2.53;;;1.80;;
16660;SDS011;8444;52.012;5.048;2023-04-15T12:52:58;2.58;;;1.67;;
16660;SDS011;8444;52.012;5.048;2023-04-15T12:55:23;5.63;;;1.75;;
16660;SDS011;8444;52.012;5.048;2023-04-15T12:57:48;2.50;;;1.88;;
16660;SDS011;8444;52.012;5.048;2023-04-15T13:00:13;2.03;;;1.60;;
16660;SDS011;8444;52.012;5.048;2023-04-15T13:02:39;3.95;;;2.03;;
16660;SDS011;8444;52.012;5.048;2023-04-15T13:05:04;1.95;;;1.63;;
16660;SDS011;8444;52.012;5.048;2023-04-15T13:07:30;2.50;;;1.48;;
16660;SDS011;8444;52.012;5.048;2023-04-15T13:09:55;2.38;;;1.85;;
16660;SDS011;8444;52.012;5.048;2023-04-15T13:12:20;3.13;;;1.40;;
16660;SDS011;8444;52.012;5.048;2023-04-15T13:14:46;2.23;;;1.53;;
16660;SDS011;8444;52.012;5.048;2023-04-15T13:17:11;1.92;;;1.30;;
16660;SDS011;8444;52.012;5.048;2023-04-15T13:19:37;2.17;;;1.98;;
16660;SDS011;8444;52.012;5.048;2023-04-15T13:22:02;1.58;;;1.30;;
16660;SDS011;8444;52.012;5.048;2023-04-15T13:24:28;1.45;;;1.02;;
16660;SDS011;8444;52.012;5.048;2023-04-15T13:26:53;3.10;;;1.30;;
16660;SDS011;8444;52.012;5.048;2023-04-15T13:29:18;4.30;;;1.40;;
16660;SDS011;8444;52.012;5.048;2023-04-15T13:31:44;3.47;;;1.30;;
16660;SDS011;8444;52.012;5.048;2023-04-15T13:34:09;2.20;;;1.10;;
16660;SDS011;8444;52.012;5.048;2023-04-15T13:36:34;3.30;;;1.17;;
16660;SDS011;8444;52.012;5.048;2023-04-15T13:39:00;1.58;;;1.05;;
16660;SDS011;8444;52.012;5.048;2023-04-15T13:41:25;5.05;;;1.23;;
16660;SDS011;8444;52.012;5.048;2023-04-15T13:43:50;2.88;;;0.85;;
16660;SDS011;8444;52.012;5.048;2023-04-15T13:46:15;3.15;;;1.50;;
16660;SDS011;8444;52.012;5.048;2023-04-15T13:48:40;5.70;;;1.45;;
16660;SDS011;8444;52.012;5.048;2023-04-15T13:51:06;0.80;;;0.80;;
16660;SDS011;8444;52.012;5.048;2023-04-15T13:53:31;2.70;;;0.88;;
16660;SDS011;8444;52.012;5.048;2023-04-15T13:55:57;1.75;;;1.13;;
16660;SDS011;8444;52.012;5.048;2023-04-15T13:58:22;1.58;;;1.48;;
16660;SDS011;8444;52.012;5.048;2023-04-15T14:00:47;0.75;;;0.63;;
16660;SDS011;8444;52.012;5.048;2023-04-15T14:03:12;3.20;;;1.20;;
16660;SDS011;8444;52.012;5.048;2023-04-15T14:05:37;2.20;;;0.90;;
16660;SDS011;8444;52.012;5.048;2023-04-15T14:08:03;1.95;;;1.00;;
16660;SDS011;8444;52.012;5.048;2023-04-15T14:10:28;1.00;;;0.90;;
16660;SDS011;8444;52.012;5.048;2023-04-15T14:12:53;1.30;;;0.95;;
16660;SDS011;8444;52.012;5.048;2023-04-15T14:15:18;1.10;;;0.80;;
16660;SDS011;8444;52.012;5.048;2023-04-15T14:17:44;1.92;;;1.05;;
16660;SDS011;8444;52.012;5.048;2023-04-15T14:20:09;1.30;;;0.70;;
16660;SDS011;8444;52.012;5.048;2023-04-15T14:22:35;1.10;;;0.70;;
16660;SDS011;8444;52.012;5.048;2023-04-15T14:25:00;2.45;;;0.70;;
16660;SDS011;8444;52.012;5.048;2023-04-15T14:27:25;2.80;;;0.93;;
16660;SDS011;8444;52.012;5.048;2023-04-15T14:29:51;2.33;;;0.80;;
16660;SDS011;8444;52.012;5.048;2023-04-15T14:32:17;0.75;;;0.60;;
16660;SDS011;8444;52.012;5.048;2023-04-15T14:34:42;0.88;;;0.73;;
16660;SDS011;8444;52.012;5.048;2023-04-15T14:37:07;1.60;;;1.05;;
16660;SDS011;8444;52.012;5.048;2023-04-15T14:39:33;2.35;;;0.93;;
16660;SDS011;8444;52.012;5.048;2023-04-15T14:41:58;1.65;;;1.10;;
16660;SDS011;8444;52.012;5.048;2023-04-15T14:44:23;3.80;;;0.63;;
16660;SDS011;8444;52.012;5.048;2023-04-15T14:46:49;1.15;;;0.60;;
16660;SDS011;8444;52.012;5.048;2023-04-15T14:49:15;2.90;;;0.70;;
16660;SDS011;8444;52.012;5.048;2023-04-15T14:51:40;1.67;;;1.02;;
16660;SDS011;8444;52.012;5.048;2023-04-15T14:54:05;2.20;;;0.70;;
16660;SDS011;8444;52.012;5.048;2023-04-15T14:56:30;2.03;;;0.77;;
16660;SDS011;8444;52.012;5.048;2023-04-15T14:58:55;2.13;;;1.10;;